sensor_id;sensor_type;location;lat;lon;timestamp;pressure;altitude;pressure_sealevel;temperature
68939;BMP180;59064;45.294;11.816;2022-09-21T00:01:11;101678.40;;;15.40
68939;BMP180;59064;45.294;11.816;2022-09-21T00:03:38;101677.40;;;15.40
68939;BMP180;59064;45.294;11.816;2022-09-21T00:06:15;101679.80;;;15.40
68939;BMP180;59064;45.294;11.816;2022-09-21T00:08:42;101680.20;;;15.40
68939;BMP180;59064;45.294;11.816;2022-09-21T00:11:17;101681.00;;;15.46
68939;BMP180;59064;45.294;11.816;2022-09-21T00:13:43;101683.20;;;15.50
68939;BMP180;59064;45.294;11.816;2022-09-21T00:16:12;101685.00;;;15.50
68939;BMP180;59064;45.294;11.816;2022-09-21T00:18:38;101686.80;;;15.50
68939;BMP180;59064;45.294;11.816;2022-09-21T00:21:09;101684.40;;;15.50
68939;BMP180;59064;45.294;11.816;2022-09-21T00:23:36;101690.80;;;15.50
68939;BMP180;59064;45.294;11.816;2022-09-21T00:26:12;101700.20;;;15.58
68939;BMP180;59064;45.294;11.816;2022-09-21T00:28:38;101702.60;;;15.60
68939;BMP180;59064;45.294;11.816;2022-09-21T00:31:08;101709.00;;;15.70
68939;BMP180;59064;45.294;11.816;2022-09-21T00:33:37;101718.00;;;15.70
68939;BMP180;59064;45.294;11.816;2022-09-21T00:36:09;101717.20;;;15.72
68939;BMP180;59064;45.294;11.816;2022-09-21T00:38:36;101723.40;;;15.80
68939;BMP180;59064;45.294;11.816;2022-09-21T00:41:04;101720.40;;;15.80
68939;BMP180;59064;45.294;11.816;2022-09-21T00:43:34;101728.20;;;15.80
68939;BMP180;59064;45.294;11.816;2022-09-21T00:46:06;101727.80;;;15.80
68939;BMP180;59064;45.294;11.816;2022-09-21T00:48:35;101725.40;;;15.80
68939;BMP180;59064;45.294;11.816;2022-09-21T00:51:05;101720.80;;;15.70
68939;BMP180;59064;45.294;11.816;2022-09-21T00:53:33;101714.40;;;15.60
68939;BMP180;59064;45.294;11.816;2022-09-21T00:56:01;101726.80;;;15.50
68939;BMP180;59064;45.294;11.816;2022-09-21T00:58:42;101720.80;;;15.38
68939;BMP180;59064;45.294;11.816;2022-09-21T01:01:09;101716.20;;;15.20
68939;BMP180;59064;45.294;11.816;2022-09-21T01:03:36;101738.60;;;15.10
68939;BMP180;59064;45.294;11.816;2022-09-21T01:06:02;101737.00;;;15.00
68939;BMP180;59064;45.294;11.816;2022-09-21T01:08:28;101744.00;;;14.90
68939;BMP180;59064;45.294;11.816;2022-09-21T01:10:59;101748.40;;;14.90
68939;BMP180;59064;45.294;11.816;2022-09-21T01:13:54;101757.60;;;14.80
68939;BMP180;59064;45.294;11.816;2022-09-21T01:30:46;101789.20;;;14.20
68939;BMP180;59064;45.294;11.816;2022-09-21T01:33:28;101795.60;;;14.10
68939;BMP180;59064;45.294;11.816;2022-09-21T01:36:01;101805.40;;;14.00
68939;BMP180;59064;45.294;11.816;2022-09-21T01:38:39;101803.60;;;13.90
68939;BMP180;59064;45.294;11.816;2022-09-21T01:41:07;101808.60;;;13.80
68939;BMP180;59064;45.294;11.816;2022-09-21T01:43:46;101797.80;;;13.60
68939;BMP180;59064;45.294;11.816;2022-09-21T01:46:17;101809.80;;;13.50
68939;BMP180;59064;45.294;11.816;2022-09-21T01:48:48;101809.80;;;13.40
68939;BMP180;59064;45.294;11.816;2022-09-21T01:51:17;101807.60;;;13.32
68939;BMP180;59064;45.294;11.816;2022-09-21T01:53:50;101819.40;;;13.30
68939;BMP180;59064;45.294;11.816;2022-09-21T01:56:51;101808.60;;;13.30
68939;BMP180;59064;45.294;11.816;2022-09-21T02:02:08;101800.80;;;13.30
68939;BMP180;59064;45.294;11.816;2022-09-21T02:04:35;101800.00;;;13.30
68939;BMP180;59064;45.294;11.816;2022-09-21T02:07:03;101804.80;;;13.30
68939;BMP180;59064;45.294;11.816;2022-09-21T02:09:29;101792.60;;;13.30
68939;BMP180;59064;45.294;11.816;2022-09-21T02:11:55;101792.40;;;13.30
68939;BMP180;59064;45.294;11.816;2022-09-21T02:14:24;101782.60;;;13.20
68939;BMP180;59064;45.294;11.816;2022-09-21T02:19:48;101758.60;;;13.20
68939;BMP180;59064;45.294;11.816;2022-09-21T02:25:14;101758.40;;;13.10
68939;BMP180;59064;45.294;11.816;2022-09-21T02:27:55;101758.20;;;13.10
68939;BMP180;59064;45.294;11.816;2022-09-21T02:30:23;101750.60;;;13.10
68939;BMP180;59064;45.294;11.816;2022-09-21T02:35:54;101764.00;;;13.10
68939;BMP180;59064;45.294;11.816;2022-09-21T02:39:04;101759.80;;;13.18
68939;BMP180;59064;45.294;11.816;2022-09-21T02:41:25;101760.60;;;13.20
68939;BMP180;59064;45.294;11.816;2022-09-21T02:44:26;101761.40;;;13.20
68939;BMP180;59064;45.294;11.816;2022-09-21T02:47:29;101767.20;;;13.30
68939;BMP180;59064;45.294;11.816;2022-09-21T02:50:03;101769.00;;;13.30
68939;BMP180;59064;45.294;11.816;2022-09-21T02:52:31;101773.40;;;13.36
68939;BMP180;59064;45.294;11.816;2022-09-21T02:55:00;101774.20;;;13.40
68939;BMP180;59064;45.294;11.816;2022-09-21T02:57:26;101778.00;;;13.40
68939;BMP180;59064;45.294;11.816;2022-09-21T02:59:51;101788.60;;;13.50
68939;BMP180;59064;45.294;11.816;2022-09-21T03:02:17;101805.40;;;13.50
68939;BMP180;59064;45.294;11.816;2022-09-21T03:04:45;101810.40;;;13.50
68939;BMP180;59064;45.294;11.816;2022-09-21T03:07:14;101816.40;;;13.50
68939;BMP180;59064;45.294;11.816;2022-09-21T03:09:39;101811.40;;;13.40
68939;BMP180;59064;45.294;11.816;2022-09-21T03:12:05;101812.40;;;13.40
68939;BMP180;59064;45.294;11.816;2022-09-21T03:14:31;101816.40;;;13.34
68939;BMP180;59064;45.294;11.816;2022-09-21T03:16:58;101821.40;;;13.34
68939;BMP180;59064;45.294;11.816;2022-09-21T03:19:25;101821.00;;;13.30
68939;BMP180;59064;45.294;11.816;2022-09-21T03:21:52;101812.80;;;13.30
68939;BMP180;59064;45.294;11.816;2022-09-21T03:24:19;101806.80;;;13.30
68939;BMP180;59064;45.294;11.816;2022-09-21T03:27:05;101804.20;;;13.30
68939;BMP180;59064;45.294;11.816;2022-09-21T03:29:33;101811.20;;;13.30
68939;BMP180;59064;45.294;11.816;2022-09-21T03:31:59;101815.00;;;13.30
68939;BMP180;59064;45.294;11.816;2022-09-21T03:34:24;101814.60;;;13.20
68939;BMP180;59064;45.294;11.816;2022-09-21T03:36:51;101818.20;;;13.18
68939;BMP180;59064;45.294;11.816;2022-09-21T03:39:16;101818.40;;;13.10
68939;BMP180;59064;45.294;11.816;2022-09-21T03:41:42;101822.00;;;13.10
68939;BMP180;59064;45.294;11.816;2022-09-21T03:44:08;101825.60;;;13.10
68939;BMP180;59064;45.294;11.816;2022-09-21T03:46:33;101822.80;;;13.02
68939;BMP180;59064;45.294;11.816;2022-09-21T03:49:00;101821.60;;;13.00
68939;BMP180;59064;45.294;11.816;2022-09-21T03:51:28;101821.20;;;13.00
68939;BMP180;59064;45.294;11.816;2022-09-21T03:53:57;101820.40;;;13.00
68939;BMP180;59064;45.294;11.816;2022-09-21T03:56:22;101824.60;;;13.00
68939;BMP180;59064;45.294;11.816;2022-09-21T03:58:48;101832.40;;;12.90
68939;BMP180;59064;45.294;11.816;2022-09-21T04:01:14;101828.80;;;12.90
68939;BMP180;59064;45.294;11.816;2022-09-21T04:03:40;101829.00;;;12.80
68939;BMP180;59064;45.294;11.816;2022-09-21T04:06:10;101827.60;;;12.80
68939;BMP180;59064;45.294;11.816;2022-09-21T04:08:37;101831.80;;;12.80
68939;BMP180;59064;45.294;11.816;2022-09-21T04:11:21;101837.80;;;12.70
68939;BMP180;59064;45.294;11.816;2022-09-21T04:13:51;101835.80;;;12.70
68939;BMP180;59064;45.294;11.816;2022-09-21T04:16:23;101840.80;;;12.66
68939;BMP180;59064;45.294;11.816;2022-09-21T04:18:50;101841.80;;;12.60
68939;BMP180;59064;45.294;11.816;2022-09-21T04:21:19;101843.60;;;12.60
68939;BMP180;59064;45.294;11.816;2022-09-21T04:23:47;101848.80;;;12.60
68939;BMP180;59064;45.294;11.816;2022-09-21T04:26:34;101849.80;;;12.60
68939;BMP180;59064;45.294;11.816;2022-09-21T04:29:01;101853.60;;;12.60
68939;BMP180;59064;45.294;11.816;2022-09-21T04:31:28;101856.00;;;12.60
68939;BMP180;59064;45.294;11.816;2022-09-21T04:33:56;101862.20;;;12.60
68939;BMP180;59064;45.294;11.816;2022-09-21T04:36:24;101869.20;;;12.60
68939;BMP180;59064;45.294;11.816;2022-09-21T04:38:50;101876.40;;;12.60
68939;BMP180;59064;45.294;11.816;2022-09-21T04:41:17;101881.40;;;12.60
68939;BMP180;59064;45.294;11.816;2022-09-21T04:43:46;101881.00;;;12.70
68939;BMP180;59064;45.294;11.816;2022-09-21T04:46:15;101879.60;;;12.70
68939;BMP180;59064;45.294;11.816;2022-09-21T04:48:41;101882.00;;;12.70
68939;BMP180;59064;45.294;11.816;2022-09-21T04:51:09;101880.80;;;12.70
68939;BMP180;59064;45.294;11.816;2022-09-21T04:53:38;101882.60;;;12.70
68939;BMP180;59064;45.294;11.816;2022-09-21T04:56:06;101885.00;;;12.70
68939;BMP180;59064;45.294;11.816;2022-09-21T04:58:32;101886.00;;;12.60
68939;BMP180;59064;45.294;11.816;2022-09-21T05:00:59;101889.20;;;12.60
68939;BMP180;59064;45.294;11.816;2022-09-21T05:03:25;101892.40;;;12.60
68939;BMP180;59064;45.294;11.816;2022-09-21T05:05:54;101886.60;;;12.60
68939;BMP180;59064;45.294;11.816;2022-09-21T05:08:23;101890.80;;;12.60
68939;BMP180;59064;45.294;11.816;2022-09-21T05:11:11;101888.20;;;12.50
68939;BMP180;59064;45.294;11.816;2022-09-21T05:13:41;101891.00;;;12.50
68939;BMP180;59064;45.294;11.816;2022-09-21T05:16:07;101898.80;;;12.50
68939;BMP180;59064;45.294;11.816;2022-09-21T05:18:34;101899.00;;;12.42
68939;BMP180;59064;45.294;11.816;2022-09-21T05:21:01;101901.60;;;12.40
68939;BMP180;59064;45.294;11.816;2022-09-21T05:23:29;101896.80;;;12.46
68939;BMP180;59064;45.294;11.816;2022-09-21T05:25:56;101900.40;;;12.50
68939;BMP180;59064;45.294;11.816;2022-09-21T05:28:23;101898.80;;;12.50
68939;BMP180;59064;45.294;11.816;2022-09-21T05:39:29;101895.80;;;12.70
68939;BMP180;59064;45.294;11.816;2022-09-21T05:41:56;101901.80;;;12.70
68939;BMP180;59064;45.294;11.816;2022-09-21T05:44:23;101895.80;;;12.70
68939;BMP180;59064;45.294;11.816;2022-09-21T05:49:51;101895.20;;;12.80
68939;BMP180;59064;45.294;11.816;2022-09-21T05:55:57;101901.20;;;12.90
68939;BMP180;59064;45.294;11.816;2022-09-21T06:01:15;101906.60;;;13.00
68939;BMP180;59064;45.294;11.816;2022-09-21T06:03:44;101901.60;;;13.10
68939;BMP180;59064;45.294;11.816;2022-09-21T06:06:13;101907.20;;;13.12
68939;BMP180;59064;45.294;11.816;2022-09-21T06:08:39;101906.60;;;13.20
68939;BMP180;59064;45.294;11.816;2022-09-21T06:11:04;101905.20;;;13.30
68939;BMP180;59064;45.294;11.816;2022-09-21T06:13:30;101909.00;;;13.50
68939;BMP180;59064;45.294;11.816;2022-09-21T06:15:56;101909.00;;;13.66
68939;BMP180;59064;45.294;11.816;2022-09-21T06:18:23;101907.80;;;13.72
68939;BMP180;59064;45.294;11.816;2022-09-21T06:20:48;101911.40;;;13.80
68939;BMP180;59064;45.294;11.816;2022-09-21T06:23:14;101910.40;;;13.90
68939;BMP180;59064;45.294;11.816;2022-09-21T06:25:40;101913.00;;;13.94
68939;BMP180;59064;45.294;11.816;2022-09-21T06:28:15;101912.20;;;14.00
68939;BMP180;59064;45.294;11.816;2022-09-21T06:30:41;101916.20;;;14.10
68939;BMP180;59064;45.294;11.816;2022-09-21T06:33:08;101918.80;;;14.30
68939;BMP180;59064;45.294;11.816;2022-09-21T06:35:35;101917.40;;;14.40
68939;BMP180;59064;45.294;11.816;2022-09-21T06:38:04;101919.40;;;14.40
68939;BMP180;59064;45.294;11.816;2022-09-21T06:40:32;101921.60;;;14.50
68939;BMP180;59064;45.294;11.816;2022-09-21T06:43:00;101921.40;;;14.60
68939;BMP180;59064;45.294;11.816;2022-09-21T06:45:28;101921.60;;;14.70
68939;BMP180;59064;45.294;11.816;2022-09-21T06:47:55;101925.80;;;14.70
68939;BMP180;59064;45.294;11.816;2022-09-21T06:50:22;101924.20;;;14.82
68939;BMP180;59064;45.294;11.816;2022-09-21T06:52:48;101928.60;;;15.00
68939;BMP180;59064;45.294;11.816;2022-09-21T06:55:14;101925.40;;;15.30
68939;BMP180;59064;45.294;11.816;2022-09-21T06:57:40;101925.80;;;15.50
68939;BMP180;59064;45.294;11.816;2022-09-21T07:00:09;101929.20;;;15.70
68939;BMP180;59064;45.294;11.816;2022-09-21T07:02:36;101930.80;;;15.90
68939;BMP180;59064;45.294;11.816;2022-09-21T07:05:02;101932.60;;;16.14
68939;BMP180;59064;45.294;11.816;2022-09-21T07:07:28;101931.80;;;16.40
68939;BMP180;59064;45.294;11.816;2022-09-21T07:09:58;101937.80;;;16.58
68939;BMP180;59064;45.294;11.816;2022-09-21T07:12:27;101927.80;;;16.70
68939;BMP180;59064;45.294;11.816;2022-09-21T07:14:53;101932.20;;;16.72
68939;BMP180;59064;45.294;11.816;2022-09-21T07:17:18;101935.20;;;16.80
68939;BMP180;59064;45.294;11.816;2022-09-21T07:19:44;101935.80;;;16.70
68939;BMP180;59064;45.294;11.816;2022-09-21T07:22:10;101938.40;;;16.70
68939;BMP180;59064;45.294;11.816;2022-09-21T07:24:36;101935.60;;;16.80
68939;BMP180;59064;45.294;11.816;2022-09-21T07:27:01;101939.80;;;16.94
68939;BMP180;59064;45.294;11.816;2022-09-21T07:29:27;101944.80;;;17.00
68939;BMP180;59064;45.294;11.816;2022-09-21T07:31:53;101946.80;;;17.00
68939;BMP180;59064;45.294;11.816;2022-09-21T07:34:18;101946.00;;;17.00
68939;BMP180;59064;45.294;11.816;2022-09-21T07:36:44;101946.00;;;17.00
68939;BMP180;59064;45.294;11.816;2022-09-21T07:39:10;101941.80;;;17.10
68939;BMP180;59064;45.294;11.816;2022-09-21T07:41:36;101946.40;;;17.20
68939;BMP180;59064;45.294;11.816;2022-09-21T07:44:02;101943.40;;;17.30
68939;BMP180;59064;45.294;11.816;2022-09-21T07:46:28;101950.60;;;17.40
68939;BMP180;59064;45.294;11.816;2022-09-21T07:48:55;101959.80;;;17.50
68939;BMP180;59064;45.294;11.816;2022-09-21T07:51:22;101961.20;;;17.60
68939;BMP180;59064;45.294;11.816;2022-09-21T07:53:54;101968.60;;;17.76
68939;BMP180;59064;45.294;11.816;2022-09-21T07:56:23;101962.40;;;17.92
68939;BMP180;59064;45.294;11.816;2022-09-21T07:58:49;101966.00;;;18.08
68939;BMP180;59064;45.294;11.816;2022-09-21T08:01:35;101968.20;;;18.20
68939;BMP180;59064;45.294;11.816;2022-09-21T08:04:05;101969.40;;;18.30
68939;BMP180;59064;45.294;11.816;2022-09-21T08:06:32;101964.60;;;18.34
68939;BMP180;59064;45.294;11.816;2022-09-21T08:09:00;101970.00;;;18.50
68939;BMP180;59064;45.294;11.816;2022-09-21T08:11:28;101975.60;;;18.60
68939;BMP180;59064;45.294;11.816;2022-09-21T08:14:00;101969.20;;;18.80
68939;BMP180;59064;45.294;11.816;2022-09-21T08:16:27;101976.80;;;18.80
68939;BMP180;59064;45.294;11.816;2022-09-21T08:18:53;101978.00;;;18.80
68939;BMP180;59064;45.294;11.816;2022-09-21T08:21:20;101970.60;;;18.90
68939;BMP180;59064;45.294;11.816;2022-09-21T08:23:47;101985.00;;;19.00
68939;BMP180;59064;45.294;11.816;2022-09-21T08:26:15;101977.60;;;19.10
68939;BMP180;59064;45.294;11.816;2022-09-21T08:28:47;101986.20;;;19.20
68939;BMP180;59064;45.294;11.816;2022-09-21T08:31:16;101984.60;;;19.40
68939;BMP180;59064;45.294;11.816;2022-09-21T08:33:44;101984.20;;;19.46
68939;BMP180;59064;45.294;11.816;2022-09-21T08:36:10;101994.60;;;19.50
68939;BMP180;59064;45.294;11.816;2022-09-21T08:38:38;101979.00;;;19.68
68939;BMP180;59064;45.294;11.816;2022-09-21T08:44:22;101994.40;;;20.00
68939;BMP180;59064;45.294;11.816;2022-09-21T08:47:05;102003.00;;;20.22
68939;BMP180;59064;45.294;11.816;2022-09-21T08:49:35;102000.60;;;20.40
68939;BMP180;59064;45.294;11.816;2022-09-21T08:52:05;102000.40;;;20.30
68939;BMP180;59064;45.294;11.816;2022-09-21T08:54:57;102002.80;;;20.00
68939;BMP180;59064;45.294;11.816;2022-09-21T08:57:33;101999.40;;;19.80
68939;BMP180;59064;45.294;11.816;2022-09-21T09:00:00;102007.20;;;19.70
68939;BMP180;59064;45.294;11.816;2022-09-21T09:02:49;102003.40;;;19.60
68939;BMP180;59064;45.294;11.816;2022-09-21T09:05:45;102005.60;;;19.70
68939;BMP180;59064;45.294;11.816;2022-09-21T09:09:00;102004.60;;;19.80
68939;BMP180;59064;45.294;11.816;2022-09-21T09:20:36;102012.00;;;20.60
68939;BMP180;59064;45.294;11.816;2022-09-21T09:23:28;102000.00;;;20.60
68939;BMP180;59064;45.294;11.816;2022-09-21T09:26:02;102012.20;;;20.68
68939;BMP180;59064;45.294;11.816;2022-09-21T09:28:43;102006.20;;;20.90
68939;BMP180;59064;45.294;11.816;2022-09-21T09:31:28;102008.60;;;21.10
68939;BMP180;59064;45.294;11.816;2022-09-21T09:34:19;102013.60;;;21.40
68939;BMP180;59064;45.294;11.816;2022-09-21T09:36:57;102012.00;;;21.50
68939;BMP180;59064;45.294;11.816;2022-09-21T09:39:24;102003.80;;;21.30
68939;BMP180;59064;45.294;11.816;2022-09-21T09:48:25;102017.60;;;21.24
68939;BMP180;59064;45.294;11.816;2022-09-21T09:50:54;102013.60;;;21.40
68939;BMP180;59064;45.294;11.816;2022-09-21T09:53:24;102008.80;;;21.40
68939;BMP180;59064;45.294;11.816;2022-09-21T09:55:56;102008.00;;;21.50
68939;BMP180;59064;45.294;11.816;2022-09-21T09:58:53;102013.40;;;21.60
68939;BMP180;59064;45.294;11.816;2022-09-21T10:01:58;102002.20;;;21.60
68939;BMP180;59064;45.294;11.816;2022-09-21T10:04:25;102012.40;;;21.66
68939;BMP180;59064;45.294;11.816;2022-09-21T10:06:50;102008.00;;;21.70
68939;BMP180;59064;45.294;11.816;2022-09-21T10:09:31;102016.60;;;21.80
68939;BMP180;59064;45.294;11.816;2022-09-21T10:12:24;102005.00;;;21.80
68939;BMP180;59064;45.294;11.816;2022-09-21T10:14:55;102014.60;;;21.78
68939;BMP180;59064;45.294;11.816;2022-09-21T10:17:23;102009.00;;;21.62
68939;BMP180;59064;45.294;11.816;2022-09-21T10:19:59;102011.20;;;21.76
68939;BMP180;59064;45.294;11.816;2022-09-21T10:22:27;102008.00;;;22.00
68939;BMP180;59064;45.294;11.816;2022-09-21T10:24:54;102007.00;;;22.00
68939;BMP180;59064;45.294;11.816;2022-09-21T10:27:27;102012.20;;;22.22
68939;BMP180;59064;45.294;11.816;2022-09-21T10:29:54;102008.00;;;22.20
68939;BMP180;59064;45.294;11.816;2022-09-21T10:32:25;102014.20;;;21.52
68939;BMP180;59064;45.294;11.816;2022-09-21T10:37:40;102016.40;;;21.50
68939;BMP180;59064;45.294;11.816;2022-09-21T10:42:45;102015.00;;;21.96
68939;BMP180;59064;45.294;11.816;2022-09-21T10:47:46;102008.80;;;21.70
68939;BMP180;59064;45.294;11.816;2022-09-21T10:53:12;102009.00;;;21.90
68939;BMP180;59064;45.294;11.816;2022-09-21T10:55:53;102010.60;;;22.26
68939;BMP180;59064;45.294;11.816;2022-09-21T10:58:21;102005.20;;;22.60
68939;BMP180;59064;45.294;11.816;2022-09-21T11:00:49;102008.20;;;22.72
68939;BMP180;59064;45.294;11.816;2022-09-21T11:03:43;102007.40;;;22.74
68939;BMP180;59064;45.294;11.816;2022-09-21T11:06:28;102002.40;;;22.90
68939;BMP180;59064;45.294;11.816;2022-09-21T11:09:02;102010.80;;;22.70
68939;BMP180;59064;45.294;11.816;2022-09-21T11:12:06;102012.40;;;22.70
68939;BMP180;59064;45.294;11.816;2022-09-21T11:17:56;102005.20;;;22.40
68939;BMP180;59064;45.294;11.816;2022-09-21T11:20:51;102018.60;;;22.30
68939;BMP180;59064;45.294;11.816;2022-09-21T11:29:10;102014.00;;;22.00
68939;BMP180;59064;45.294;11.816;2022-09-21T11:35:16;102011.00;;;22.64
68939;BMP180;59064;45.294;11.816;2022-09-21T11:57:34;102009.60;;;23.60
68939;BMP180;59064;45.294;11.816;2022-09-21T12:08:50;102002.40;;;23.82
68939;BMP180;59064;45.294;11.816;2022-09-21T12:11:56;102009.40;;;23.80
68939;BMP180;59064;45.294;11.816;2022-09-21T12:17:48;101994.40;;;24.34
68939;BMP180;59064;45.294;11.816;2022-09-21T12:20:49;101994.00;;;24.38
68939;BMP180;59064;45.294;11.816;2022-09-21T12:23:27;101989.40;;;24.50
68939;BMP180;59064;45.294;11.816;2022-09-21T12:25:56;101991.00;;;24.62
68939;BMP180;59064;45.294;11.816;2022-09-21T12:29:05;101987.00;;;24.62
68939;BMP180;59064;45.294;11.816;2022-09-21T12:34:55;101987.40;;;25.00
68939;BMP180;59064;45.294;11.816;2022-09-21T12:37:46;101977.00;;;24.90
68939;BMP180;59064;45.294;11.816;2022-09-21T12:40:30;101978.80;;;25.00
68939;BMP180;59064;45.294;11.816;2022-09-21T12:43:12;101981.80;;;25.00
68939;BMP180;59064;45.294;11.816;2022-09-21T12:45:50;101983.40;;;25.10
68939;BMP180;59064;45.294;11.816;2022-09-21T12:48:33;101978.80;;;25.44
68939;BMP180;59064;45.294;11.816;2022-09-21T12:51:25;101979.80;;;25.78
68939;BMP180;59064;45.294;11.816;2022-09-21T12:53:55;101978.00;;;25.80
68939;BMP180;59064;45.294;11.816;2022-09-21T13:02:16;101977.80;;;26.00
68939;BMP180;59064;45.294;11.816;2022-09-21T13:05:20;101981.40;;;25.80
68939;BMP180;59064;45.294;11.816;2022-09-21T13:08:12;101977.00;;;25.54
68939;BMP180;59064;45.294;11.816;2022-09-21T13:11:00;101989.00;;;25.50
68939;BMP180;59064;45.294;11.816;2022-09-21T13:13:32;101986.00;;;25.50
68939;BMP180;59064;45.294;11.816;2022-09-21T13:15:59;101981.20;;;25.30
68939;BMP180;59064;45.294;11.816;2022-09-21T13:18:33;101978.80;;;25.10
68939;BMP180;59064;45.294;11.816;2022-09-21T13:21:24;101979.80;;;25.10
68939;BMP180;59064;45.294;11.816;2022-09-21T13:24:00;101978.40;;;25.42
68939;BMP180;59064;45.294;11.816;2022-09-21T13:26:42;101972.40;;;26.00
68939;BMP180;59064;45.294;11.816;2022-09-21T13:34:41;101967.20;;;27.02
68939;BMP180;59064;45.294;11.816;2022-09-21T13:47:45;101961.20;;;28.34
68939;BMP180;59064;45.294;11.816;2022-09-21T13:50:29;101959.60;;;28.24
68939;BMP180;59064;45.294;11.816;2022-09-21T13:53:03;101964.80;;;27.90
68939;BMP180;59064;45.294;11.816;2022-09-21T13:55:52;101967.00;;;27.70
68939;BMP180;59064;45.294;11.816;2022-09-21T14:01:34;101961.40;;;28.08
68939;BMP180;59064;45.294;11.816;2022-09-21T14:04:27;101958.80;;;28.16
68939;BMP180;59064;45.294;11.816;2022-09-21T14:06:55;101966.00;;;27.86
68939;BMP180;59064;45.294;11.816;2022-09-21T14:12:04;101963.40;;;28.34
68939;BMP180;59064;45.294;11.816;2022-09-21T14:14:35;101957.20;;;28.54
68939;BMP180;59064;45.294;11.816;2022-09-21T14:17:04;101952.80;;;28.02
68939;BMP180;59064;45.294;11.816;2022-09-21T14:27:35;101954.40;;;28.14
68939;BMP180;59064;45.294;11.816;2022-09-21T14:30:23;101958.20;;;27.88
68939;BMP180;59064;45.294;11.816;2022-09-21T14:33:19;101963.40;;;28.00
68939;BMP180;59064;45.294;11.816;2022-09-21T14:35:47;101958.40;;;28.54
68939;BMP180;59064;45.294;11.816;2022-09-21T14:38:37;101959.60;;;28.72
68939;BMP180;59064;45.294;11.816;2022-09-21T14:41:07;101963.80;;;28.70
68939;BMP180;59064;45.294;11.816;2022-09-21T14:43:35;101957.80;;;28.78
68939;BMP180;59064;45.294;11.816;2022-09-21T15:00:23;101955.20;;;28.00
68939;BMP180;59064;45.294;11.816;2022-09-21T15:17:56;101954.60;;;27.06
68939;BMP180;59064;45.294;11.816;2022-09-21T15:20:25;101953.20;;;27.00
68939;BMP180;59064;45.294;11.816;2022-09-21T15:22:56;101948.40;;;26.98
68939;BMP180;59064;45.294;11.816;2022-09-21T15:25:27;101948.20;;;26.90
68939;BMP180;59064;45.294;11.816;2022-09-21T15:27:53;101944.60;;;26.72
68939;BMP180;59064;45.294;11.816;2022-09-21T15:30:23;101954.80;;;26.60
68939;BMP180;59064;45.294;11.816;2022-09-21T15:33:01;101953.80;;;26.54
68939;BMP180;59064;45.294;11.816;2022-09-21T15:35:30;101952.80;;;26.48
68939;BMP180;59064;45.294;11.816;2022-09-21T15:37:58;101951.80;;;26.40
68939;BMP180;59064;45.294;11.816;2022-09-21T15:40:45;101949.40;;;26.20
68939;BMP180;59064;45.294;11.816;2022-09-21T15:46:00;101948.60;;;26.00
68939;BMP180;59064;45.294;11.816;2022-09-21T15:48:31;101948.60;;;25.80
68939;BMP180;59064;45.294;11.816;2022-09-21T15:51:26;101953.60;;;25.80
68939;BMP180;59064;45.294;11.816;2022-09-21T15:54:07;101947.80;;;25.50
68939;BMP180;59064;45.294;11.816;2022-09-21T15:56:34;101952.20;;;25.30
68939;BMP180;59064;45.294;11.816;2022-09-21T15:59:03;101958.80;;;25.10
68939;BMP180;59064;45.294;11.816;2022-09-21T16:01:45;101953.20;;;25.16
68939;BMP180;59064;45.294;11.816;2022-09-21T16:04:21;101953.00;;;25.00
68939;BMP180;59064;45.294;11.816;2022-09-21T16:07:31;101959.80;;;24.82
68939;BMP180;59064;45.294;11.816;2022-09-21T16:10:00;101957.20;;;24.70
68939;BMP180;59064;45.294;11.816;2022-09-21T16:15:00;101958.80;;;24.40
68939;BMP180;59064;45.294;11.816;2022-09-21T16:17:36;101954.40;;;24.48
68939;BMP180;59064;45.294;11.816;2022-09-21T16:20:13;101957.20;;;24.30
68939;BMP180;59064;45.294;11.816;2022-09-21T16:22:46;101957.80;;;24.12
68939;BMP180;59064;45.294;11.816;2022-09-21T16:27:57;101965.60;;;23.90
68939;BMP180;59064;45.294;11.816;2022-09-21T16:30:40;101968.00;;;23.80
68939;BMP180;59064;45.294;11.816;2022-09-21T16:33:43;101966.00;;;23.70
68939;BMP180;59064;45.294;11.816;2022-09-21T16:38:47;101970.00;;;23.40
68939;BMP180;59064;45.294;11.816;2022-09-21T16:41:15;101967.60;;;23.22
68939;BMP180;59064;45.294;11.816;2022-09-21T16:43:42;101970.00;;;23.02
68939;BMP180;59064;45.294;11.816;2022-09-21T16:46:09;101966.80;;;22.80
68939;BMP180;59064;45.294;11.816;2022-09-21T16:48:35;101964.40;;;22.58
68939;BMP180;59064;45.294;11.816;2022-09-21T16:51:01;101964.40;;;22.38
68939;BMP180;59064;45.294;11.816;2022-09-21T16:53:27;101963.60;;;22.20
68939;BMP180;59064;45.294;11.816;2022-09-21T16:55:53;101968.60;;;22.00
68939;BMP180;59064;45.294;11.816;2022-09-21T16:58:20;101967.00;;;21.72
68939;BMP180;59064;45.294;11.816;2022-09-21T17:00:51;101968.20;;;21.40
68939;BMP180;59064;45.294;11.816;2022-09-21T17:03:18;101962.80;;;20.90
68939;BMP180;59064;45.294;11.816;2022-09-21T17:05:44;101963.60;;;20.40
68939;BMP180;59064;45.294;11.816;2022-09-21T17:08:11;101965.00;;;19.90
68939;BMP180;59064;45.294;11.816;2022-09-21T17:10:42;101968.80;;;19.46
68939;BMP180;59064;45.294;11.816;2022-09-21T17:13:10;101964.80;;;19.10
68939;BMP180;59064;45.294;11.816;2022-09-21T17:15:43;101968.40;;;18.78
68939;BMP180;59064;45.294;11.816;2022-09-21T17:18:12;101970.00;;;18.50
68939;BMP180;59064;45.294;11.816;2022-09-21T17:20:41;101965.20;;;18.20
68939;BMP180;59064;45.294;11.816;2022-09-21T17:23:09;101963.80;;;17.98
68939;BMP180;59064;45.294;11.816;2022-09-21T17:25:36;101971.20;;;17.78
68939;BMP180;59064;45.294;11.816;2022-09-21T17:28:12;101969.80;;;17.60
68939;BMP180;59064;45.294;11.816;2022-09-21T17:30:38;101969.20;;;17.40